sensor_id;sensor_type;location;lat;lon;timestamp;pressure;altitude;pressure_sealevel;temperature;humidity
19023;BME280;35226;48.606;8.858;2023-06-14T00:01:44;95835.88;;;14.34;70.10
19023;BME280;35226;48.606;8.858;2023-06-14T00:04:11;95846.81;;;14.23;68.26
19023;BME280;35226;48.606;8.858;2023-06-14T00:06:38;95844.78;;;14.23;66.94
19023;BME280;35226;48.606;8.858;2023-06-14T00:09:04;95842.00;;;14.23;67.72
19023;BME280;35226;48.606;8.858;2023-06-14T00:11:31;95847.50;;;14.18;67.37
19023;BME280;35226;48.606;8.858;2023-06-14T00:13:56;95847.38;;;14.12;71.74
19023;BME280;35226;48.606;8.858;2023-06-14T00:16:22;95834.81;;;13.87;77.18
19023;BME280;35226;48.606;8.858;2023-06-14T00:18:48;95837.63;;;13.63;83.62
19023;BME280;35226;48.606;8.858;2023-06-14T00:21:13;95840.59;;;13.60;85.39
19023;BME280;35226;48.606;8.858;2023-06-14T00:23:39;95839.75;;;13.68;81.39
19023;BME280;35226;48.606;8.858;2023-06-14T00:26:05;95832.19;;;13.69;81.43
19023;BME280;35226;48.606;8.858;2023-06-14T00:28:30;95832.38;;;13.65;82.31
19023;BME280;35226;48.606;8.858;2023-06-14T00:30:56;95830.25;;;13.60;85.03
19023;BME280;35226;48.606;8.858;2023-06-14T00:33:21;95824.94;;;13.48;86.82
19023;BME280;35226;48.606;8.858;2023-06-14T00:35:46;95836.06;;;13.48;84.60
19023;BME280;35226;48.606;8.858;2023-06-14T00:38:12;95833.44;;;13.44;83.92
19023;BME280;35226;48.606;8.858;2023-06-14T00:40:39;95837.59;;;13.49;85.04
19023;BME280;35226;48.606;8.858;2023-06-14T00:43:05;95843.78;;;13.44;86.24
19023;BME280;35226;48.606;8.858;2023-06-14T00:45:31;95844.31;;;13.33;85.78
19023;BME280;35226;48.606;8.858;2023-06-14T00:48:01;95833.78;;;13.13;87.16
19023;BME280;35226;48.606;8.858;2023-06-14T00:50:28;95835.66;;;13.07;87.00
19023;BME280;35226;48.606;8.858;2023-06-14T00:52:56;95833.66;;;13.08;88.09
19023;BME280;35226;48.606;8.858;2023-06-14T00:55:21;95833.06;;;13.04;86.63
19023;BME280;35226;48.606;8.858;2023-06-14T00:57:48;95826.16;;;12.99;86.11
19023;BME280;35226;48.606;8.858;2023-06-14T01:00:14;95832.28;;;13.03;83.82
19023;BME280;35226;48.606;8.858;2023-06-14T01:02:40;95838.28;;;13.11;81.32
19023;BME280;35226;48.606;8.858;2023-06-14T01:05:08;95834.09;;;13.15;79.47
19023;BME280;35226;48.606;8.858;2023-06-14T01:08:07;95839.00;;;13.20;76.45
19023;BME280;35226;48.606;8.858;2023-06-14T01:10:58;95833.94;;;13.19;77.66
19023;BME280;35226;48.606;8.858;2023-06-14T01:13:43;95838.28;;;13.11;80.44
19023;BME280;35226;48.606;8.858;2023-06-14T01:16:11;95833.97;;;13.10;81.42
19023;BME280;35226;48.606;8.858;2023-06-14T01:18:37;95841.81;;;13.11;81.15
19023;BME280;35226;48.606;8.858;2023-06-14T01:21:03;95832.44;;;13.09;81.34
19023;BME280;35226;48.606;8.858;2023-06-14T01:23:32;95832.91;;;13.07;80.92
19023;BME280;35226;48.606;8.858;2023-06-14T01:25:59;95837.50;;;13.10;78.26
19023;BME280;35226;48.606;8.858;2023-06-14T01:28:26;95832.00;;;13.01;79.56
19023;BME280;35226;48.606;8.858;2023-06-14T01:30:59;95829.50;;;13.03;79.27
19023;BME280;35226;48.606;8.858;2023-06-14T01:33:29;95842.97;;;12.95;82.09
19023;BME280;35226;48.606;8.858;2023-06-14T01:35:57;95828.22;;;12.89;81.56
19023;BME280;35226;48.606;8.858;2023-06-14T01:38:25;95837.59;;;12.92;81.20
19023;BME280;35226;48.606;8.858;2023-06-14T01:40:53;95840.38;;;12.92;81.70
19023;BME280;35226;48.606;8.858;2023-06-14T01:43:19;95835.78;;;12.89;80.74
19023;BME280;35226;48.606;8.858;2023-06-14T01:45:47;95838.41;;;12.83;84.34
19023;BME280;35226;48.606;8.858;2023-06-14T01:48:14;95842.59;;;12.79;85.06
19023;BME280;35226;48.606;8.858;2023-06-14T01:50:39;95842.59;;;12.79;85.96
19023;BME280;35226;48.606;8.858;2023-06-14T01:53:07;95844.28;;;12.76;83.46
19023;BME280;35226;48.606;8.858;2023-06-14T01:55:36;95839.50;;;12.77;84.27
19023;BME280;35226;48.606;8.858;2023-06-14T01:58:09;95837.84;;;12.70;86.20
19023;BME280;35226;48.606;8.858;2023-06-14T02:00:34;95837.72;;;12.65;87.93
19023;BME280;35226;48.606;8.858;2023-06-14T02:03:00;95833.41;;;12.64;90.01
19023;BME280;35226;48.606;8.858;2023-06-14T02:05:25;95837.59;;;12.59;91.07
19023;BME280;35226;48.606;8.858;2023-06-14T02:07:52;95833.31;;;12.49;92.74
19023;BME280;35226;48.606;8.858;2023-06-14T02:10:18;95834.56;;;12.48;94.12
19023;BME280;35226;48.606;8.858;2023-06-14T02:12:44;95835.00;;;12.46;93.34
19023;BME280;35226;48.606;8.858;2023-06-14T02:15:10;95840.56;;;12.46;93.18
19023;BME280;35226;48.606;8.858;2023-06-14T02:17:47;95844.91;;;12.38;96.07
19023;BME280;35226;48.606;8.858;2023-06-14T02:20:15;95838.47;;;12.32;98.07
19023;BME280;35226;48.606;8.858;2023-06-14T02:22:42;95842.78;;;12.24;99.90
19023;BME280;35226;48.606;8.858;2023-06-14T02:25:08;95837.88;;;12.19;99.80
19023;BME280;35226;48.606;8.858;2023-06-14T02:27:34;95842.03;;;12.14;99.60
19023;BME280;35226;48.606;8.858;2023-06-14T02:30:00;95844.06;;;12.14;98.34
19023;BME280;35226;48.606;8.858;2023-06-14T02:32:25;95838.66;;;12.10;99.24
19023;BME280;35226;48.606;8.858;2023-06-14T02:34:53;95835.91;;;12.10;100.00
19023;BME280;35226;48.606;8.858;2023-06-14T02:37:18;95843.00;;;12.02;100.00
19023;BME280;35226;48.606;8.858;2023-06-14T02:39:45;95848.38;;;11.97;100.00
19023;BME280;35226;48.606;8.858;2023-06-14T02:42:10;95843.91;;;11.90;100.00
19023;BME280;35226;48.606;8.858;2023-06-14T02:44:36;95838.25;;;11.84;100.00
19023;BME280;35226;48.606;8.858;2023-06-14T02:47:02;95839.31;;;11.78;100.00
19023;BME280;35226;48.606;8.858;2023-06-14T02:49:27;95838.50;;;11.68;100.00
19023;BME280;35226;48.606;8.858;2023-06-14T02:51:54;95834.38;;;11.64;100.00
19023;BME280;35226;48.606;8.858;2023-06-14T02:54:19;95834.38;;;11.64;100.00
19023;BME280;35226;48.606;8.858;2023-06-14T02:56:45;95839.28;;;11.60;100.00
19023;BME280;35226;48.606;8.858;2023-06-14T02:59:10;95827.31;;;11.63;100.00
19023;BME280;35226;48.606;8.858;2023-06-14T03:01:37;95822.38;;;11.67;100.00
19023;BME280;35226;48.606;8.858;2023-06-14T03:04:08;95832.53;;;11.70;100.00
19023;BME280;35226;48.606;8.858;2023-06-14T03:06:36;95834.53;;;11.69;100.00
19023;BME280;35226;48.606;8.858;2023-06-14T03:09:03;95827.31;;;11.72;100.00
19023;BME280;35226;48.606;8.858;2023-06-14T03:11:35;95829.91;;;11.66;100.00
19023;BME280;35226;48.606;8.858;2023-06-14T03:14:01;95838.69;;;11.65;100.00
19023;BME280;35226;48.606;8.858;2023-06-14T03:16:29;95833.75;;;11.69;100.00
19023;BME280;35226;48.606;8.858;2023-06-14T03:18:55;95838.50;;;11.68;100.00
19023;BME280;35226;48.606;8.858;2023-06-14T03:21:23;95843.75;;;11.66;100.00
19023;BME280;35226;48.606;8.858;2023-06-14T03:23:50;95842.22;;;11.65;100.00
19023;BME280;35226;48.606;8.858;2023-06-14T03:26:16;95845.44;;;11.64;100.00
19023;BME280;35226;48.606;8.858;2023-06-14T03:28:47;95850.34;;;11.60;100.00
19023;BME280;35226;48.606;8.858;2023-06-14T03:31:17;95863.72;;;11.61;100.00
19023;BME280;35226;48.606;8.858;2023-06-14T03:33:44;95858.81;;;11.65;100.00
19023;BME280;35226;48.606;8.858;2023-06-14T03:36:10;95862.06;;;11.64;100.00
19023;BME280;35226;48.606;8.858;2023-06-14T03:38:36;95857.75;;;11.63;100.00
19023;BME280;35226;48.606;8.858;2023-06-14T03:41:03;95865.09;;;11.66;100.00
19023;BME280;35226;48.606;8.858;2023-06-14T03:43:28;95860.34;;;11.66;100.00
19023;BME280;35226;48.606;8.858;2023-06-14T03:45:55;95865.41;;;11.68;100.00
19023;BME280;35226;48.606;8.858;2023-06-14T03:48:22;95861.59;;;11.65;100.00
19023;BME280;35226;48.606;8.858;2023-06-14T03:50:48;95870.34;;;11.64;100.00
19023;BME280;35226;48.606;8.858;2023-06-14T03:53:13;95869.13;;;11.65;100.00
19023;BME280;35226;48.606;8.858;2023-06-14T03:55:42;95875.56;;;11.62;100.00
19023;BME280;35226;48.606;8.858;2023-06-14T03:58:09;95886.00;;;11.58;100.00
19023;BME280;35226;48.606;8.858;2023-06-14T04:00:36;95879.88;;;11.54;100.00
19023;BME280;35226;48.606;8.858;2023-06-14T04:03:01;95883.69;;;11.47;100.00
19023;BME280;35226;48.606;8.858;2023-06-14T04:05:29;95892.00;;;11.47;100.00
19023;BME280;35226;48.606;8.858;2023-06-14T04:07:55;95897.38;;;11.41;100.00
19023;BME280;35226;48.606;8.858;2023-06-14T04:10:22;95895.38;;;11.42;100.00
19023;BME280;35226;48.606;8.858;2023-06-14T04:12:48;95892.16;;;11.43;100.00
19023;BME280;35226;48.606;8.858;2023-06-14T04:15:14;95885.69;;;11.46;100.00
19023;BME280;35226;48.606;8.858;2023-06-14T04:17:40;95888.63;;;11.52;100.00
19023;BME280;35226;48.606;8.858;2023-06-14T04:20:06;95892.31;;;11.58;100.00
19023;BME280;35226;48.606;8.858;2023-06-14T04:22:35;95902.78;;;11.63;100.00
19023;BME280;35226;48.606;8.858;2023-06-14T04:25:02;95903.56;;;11.73;100.00
19023;BME280;35226;48.606;8.858;2023-06-14T04:27:27;95897.75;;;11.80;100.00
19023;BME280;35226;48.606;8.858;2023-06-14T04:29:57;95902.38;;;11.83;100.00
19023;BME280;35226;48.606;8.858;2023-06-14T04:32:29;95900.97;;;11.88;100.00
19023;BME280;35226;48.606;8.858;2023-06-14T04:34:59;95896.38;;;11.94;100.00
19023;BME280;35226;48.606;8.858;2023-06-14T04:37:27;95895.72;;;11.99;100.00
19023;BME280;35226;48.606;8.858;2023-06-14T04:39:55;95903.44;;;12.04;100.00
19023;BME280;35226;48.606;8.858;2023-06-14T04:42:22;95908.66;;;12.11;100.00
19023;BME280;35226;48.606;8.858;2023-06-14T04:44:51;95910.78;;;12.16;100.00
19023;BME280;35226;48.606;8.858;2023-06-14T04:47:22;95912.50;;;12.22;100.00
19023;BME280;35226;48.606;8.858;2023-06-14T04:49:47;95910.94;;;12.31;100.00
19023;BME280;35226;48.606;8.858;2023-06-14T04:52:13;95915.84;;;12.36;100.00
19023;BME280;35226;48.606;8.858;2023-06-14T04:54:41;95906.16;;;12.40;100.00
19023;BME280;35226;48.606;8.858;2023-06-14T04:57:13;95918.59;;;12.45;100.00
19023;BME280;35226;48.606;8.858;2023-06-14T04:59:44;95923.69;;;12.46;100.00
19023;BME280;35226;48.606;8.858;2023-06-14T05:02:11;95934.91;;;12.52;100.00
19023;BME280;35226;48.606;8.858;2023-06-14T05:04:37;95926.28;;;12.59;100.00
19023;BME280;35226;48.606;8.858;2023-06-14T05:07:08;95928.13;;;12.62;100.00
19023;BME280;35226;48.606;8.858;2023-06-14T05:09:35;95923.16;;;12.66;100.00
19023;BME280;35226;48.606;8.858;2023-06-14T05:12:01;95926.38;;;12.74;100.00
19023;BME280;35226;48.606;8.858;2023-06-14T05:14:26;95930.06;;;12.80;100.00
19023;BME280;35226;48.606;8.858;2023-06-14T05:16:52;95929.41;;;12.85;100.00
19023;BME280;35226;48.606;8.858;2023-06-14T05:19:18;95928.81;;;12.90;100.00
19023;BME280;35226;48.606;8.858;2023-06-14T05:21:46;95917.53;;;12.93;100.00
19023;BME280;35226;48.606;8.858;2023-06-14T05:24:13;95929.53;;;13.00;100.00
19023;BME280;35226;48.606;8.858;2023-06-14T05:26:39;95925.19;;;13.08;100.00
19023;BME280;35226;48.606;8.858;2023-06-14T05:29:05;95929.03;;;13.10;100.00
19023;BME280;35226;48.606;8.858;2023-06-14T05:31:30;95931.03;;;13.19;100.00
19023;BME280;35226;48.606;8.858;2023-06-14T05:33:56;95932.69;;;13.25;100.00
19023;BME280;35226;48.606;8.858;2023-06-14T05:36:21;95933.28;;;13.29;100.00
19023;BME280;35226;48.606;8.858;2023-06-14T05:38:47;95930.94;;;13.37;100.00
19023;BME280;35226;48.606;8.858;2023-06-14T05:41:13;95929.28;;;13.54;100.00
19023;BME280;35226;48.606;8.858;2023-06-14T05:43:38;95932.47;;;13.62;100.00
19023;BME280;35226;48.606;8.858;2023-06-14T05:46:04;95936.91;;;13.68;100.00
19023;BME280;35226;48.606;8.858;2023-06-14T05:48:33;95937.63;;;13.78;100.00
19023;BME280;35226;48.606;8.858;2023-06-14T05:50:58;95948.06;;;13.83;100.00
19023;BME280;35226;48.606;8.858;2023-06-14T05:53:24;95953.44;;;13.87;100.00
19023;BME280;35226;48.606;8.858;2023-06-14T05:55:50;95953.53;;;13.92;100.00
19023;BME280;35226;48.606;8.858;2023-06-14T05:58:20;95951.66;;;13.98;100.00
19023;BME280;35226;48.606;8.858;2023-06-14T06:00:46;95950.53;;;14.05;100.00
19023;BME280;35226;48.606;8.858;2023-06-14T06:03:11;95953.84;;;14.33;100.00
19023;BME280;35226;48.606;8.858;2023-06-14T06:05:38;95946.44;;;14.39;100.00
19023;BME280;35226;48.606;8.858;2023-06-14T06:08:04;95950.25;;;14.41;100.00
19023;BME280;35226;48.606;8.858;2023-06-14T06:10:29;95957.47;;;14.48;100.00
19023;BME280;35226;48.606;8.858;2023-06-14T06:12:55;95950.44;;;14.53;100.00
19023;BME280;35226;48.606;8.858;2023-06-14T06:15:20;95956.69;;;14.62;100.00
19023;BME280;35226;48.606;8.858;2023-06-14T06:17:46;95956.13;;;14.73;98.31
19023;BME280;35226;48.606;8.858;2023-06-14T06:20:12;95955.25;;;14.81;95.46
19023;BME280;35226;48.606;8.858;2023-06-14T06:22:38;95956.91;;;14.88;94.82
19023;BME280;35226;48.606;8.858;2023-06-14T06:25:04;95955.75;;;14.95;94.44
19023;BME280;35226;48.606;8.858;2023-06-14T06:27:30;95960.13;;;15.01;93.17
19023;BME280;35226;48.606;8.858;2023-06-14T06:29:55;95956.00;;;15.26;96.42
19023;BME280;35226;48.606;8.858;2023-06-14T06:32:21;95954.34;;;15.34;95.83
19023;BME280;35226;48.606;8.858;2023-06-14T06:34:47;95960.84;;;15.46;92.91
19023;BME280;35226;48.606;8.858;2023-06-14T06:37:13;95960.44;;;15.53;91.51
19023;BME280;35226;48.606;8.858;2023-06-14T06:39:38;95960.63;;;15.64;94.46
19023;BME280;35226;48.606;8.858;2023-06-14T06:42:04;95965.03;;;15.91;90.61
19023;BME280;35226;48.606;8.858;2023-06-14T06:44:35;95966.63;;;15.98;90.55
19023;BME280;35226;48.606;8.858;2023-06-14T06:47:00;95967.34;;;16.13;90.34
19023;BME280;35226;48.606;8.858;2023-06-14T06:49:27;95975.22;;;16.14;86.47
19023;BME280;35226;48.606;8.858;2023-06-14T06:52:04;95975.63;;;16.27;88.47
19023;BME280;35226;48.606;8.858;2023-06-14T06:54:30;95974.31;;;16.23;84.56
19023;BME280;35226;48.606;8.858;2023-06-14T06:56:56;95973.69;;;16.34;80.49
19023;BME280;35226;48.606;8.858;2023-06-14T06:59:22;95966.94;;;16.46;83.88
19023;BME280;35226;48.606;8.858;2023-06-14T07:01:47;95974.28;;;16.43;77.75
19023;BME280;35226;48.606;8.858;2023-06-14T07:04:13;95975.22;;;16.60;77.53
19023;BME280;35226;48.606;8.858;2023-06-14T07:06:38;95975.00;;;16.84;79.24
19023;BME280;35226;48.606;8.858;2023-06-14T07:09:04;95977.38;;;16.97;77.10
19023;BME280;35226;48.606;8.858;2023-06-14T07:11:33;95984.78;;;17.00;76.27
19023;BME280;35226;48.606;8.858;2023-06-14T07:13:59;95978.75;;;17.07;74.69
19023;BME280;35226;48.606;8.858;2023-06-14T07:16:24;95977.09;;;17.21;76.52
19023;BME280;35226;48.606;8.858;2023-06-14T07:18:51;95978.19;;;17.29;74.62
19023;BME280;35226;48.606;8.858;2023-06-14T07:21:16;95981.75;;;17.35;74.30
19023;BME280;35226;48.606;8.858;2023-06-14T07:23:42;95978.00;;;17.38;67.99
19023;BME280;35226;48.606;8.858;2023-06-14T07:26:08;95978.22;;;17.66;74.05
19023;BME280;35226;48.606;8.858;2023-06-14T07:28:33;95984.06;;;17.68;69.71
19023;BME280;35226;48.606;8.858;2023-06-14T07:30:59;95990.66;;;17.65;69.49
19023;BME280;35226;48.606;8.858;2023-06-14T07:33:24;95986.75;;;17.88;69.55
19023;BME280;35226;48.606;8.858;2023-06-14T07:35:50;95986.97;;;17.85;59.40
19023;BME280;35226;48.606;8.858;2023-06-14T07:38:16;95993.16;;;18.00;62.01
19023;BME280;35226;48.606;8.858;2023-06-14T07:40:42;95992.69;;;18.12;63.41
19023;BME280;35226;48.606;8.858;2023-06-14T07:43:07;95991.22;;;18.17;62.15
19023;BME280;35226;48.606;8.858;2023-06-14T07:45:33;95994.78;;;18.23;63.84
19023;BME280;35226;48.606;8.858;2023-06-14T07:47:58;95993.78;;;18.32;60.91
19023;BME280;35226;48.606;8.858;2023-06-14T07:50:24;95993.94;;;18.60;63.70
19023;BME280;35226;48.606;8.858;2023-06-14T07:52:50;95988.84;;;18.58;62.46
19023;BME280;35226;48.606;8.858;2023-06-14T07:55:16;95991.16;;;18.65;59.57
19023;BME280;35226;48.606;8.858;2023-06-14T07:57:41;95998.59;;;18.85;56.69
19023;BME280;35226;48.606;8.858;2023-06-14T08:00:08;95992.72;;;18.83;53.79
19023;BME280;35226;48.606;8.858;2023-06-14T08:02:39;95996.84;;;18.99;54.43
19023;BME280;35226;48.606;8.858;2023-06-14T08:05:05;95994.53;;;19.03;56.42
19023;BME280;35226;48.606;8.858;2023-06-14T08:07:30;95995.81;;;19.13;54.39
19023;BME280;35226;48.606;8.858;2023-06-14T08:09:56;95992.00;;;19.21;56.01
19023;BME280;35226;48.606;8.858;2023-06-14T08:12:21;95995.81;;;19.30;55.80
19023;BME280;35226;48.606;8.858;2023-06-14T08:14:47;96000.94;;;19.42;54.58
19023;BME280;35226;48.606;8.858;2023-06-14T08:17:13;96005.06;;;19.58;56.10
19023;BME280;35226;48.606;8.858;2023-06-14T08:19:38;95997.63;;;19.61;52.48
19023;BME280;35226;48.606;8.858;2023-06-14T08:22:04;95998.41;;;19.67;53.64
19023;BME280;35226;48.606;8.858;2023-06-14T08:24:29;96006.53;;;19.81;52.74
19023;BME280;35226;48.606;8.858;2023-06-14T08:26:55;95998.16;;;19.76;49.21
19023;BME280;35226;48.606;8.858;2023-06-14T08:29:22;96009.34;;;19.87;49.55
19023;BME280;35226;48.606;8.858;2023-06-14T08:31:48;96007.28;;;20.04;49.96
19023;BME280;35226;48.606;8.858;2023-06-14T08:34:13;96009.28;;;20.09;50.71
19023;BME280;35226;48.606;8.858;2023-06-14T08:36:39;96012.09;;;20.09;46.64
19023;BME280;35226;48.606;8.858;2023-06-14T08:39:05;96004.16;;;20.24;49.48
19023;BME280;35226;48.606;8.858;2023-06-14T08:41:31;96004.13;;;20.41;48.79
19023;BME280;35226;48.606;8.858;2023-06-14T08:43:58;96001.72;;;20.62;48.62
19023;BME280;35226;48.606;8.858;2023-06-14T08:46:25;96010.66;;;20.60;46.39
19023;BME280;35226;48.606;8.858;2023-06-14T08:48:55;96015.97;;;20.69;46.48
19023;BME280;35226;48.606;8.858;2023-06-14T08:51:22;96017.16;;;20.91;48.07
19023;BME280;35226;48.606;8.858;2023-06-14T08:53:53;96013.84;;;20.87;46.86
19023;BME280;35226;48.606;8.858;2023-06-14T08:56:25;96014.28;;;21.02;47.77
19023;BME280;35226;48.606;8.858;2023-06-14T08:58:53;96020.56;;;21.19;45.86
19023;BME280;35226;48.606;8.858;2023-06-14T09:01:19;96019.03;;;21.24;46.87
19023;BME280;35226;48.606;8.858;2023-06-14T09:03:47;96020.69;;;21.38;46.00
19023;BME280;35226;48.606;8.858;2023-06-14T09:06:13;96025.59;;;21.32;44.95
19023;BME280;35226;48.606;8.858;2023-06-14T09:08:43;96013.19;;;21.52;45.82
19023;BME280;35226;48.606;8.858;2023-06-14T09:11:11;96017.97;;;21.62;45.09
19023;BME280;35226;48.606;8.858;2023-06-14T09:13:38;96025.00;;;21.74;42.93
19023;BME280;35226;48.606;8.858;2023-06-14T09:16:04;96014.22;;;21.78;41.41
19023;BME280;35226;48.606;8.858;2023-06-14T09:18:38;96022.66;;;21.78;43.07
19023;BME280;35226;48.606;8.858;2023-06-14T09:21:06;96020.81;;;21.87;43.19
19023;BME280;35226;48.606;8.858;2023-06-14T09:23:43;96020.03;;;21.86;41.52
19023;BME280;35226;48.606;8.858;2023-06-14T09:26:13;96023.28;;;21.96;42.29
19023;BME280;35226;48.606;8.858;2023-06-14T09:28:43;96022.94;;;22.05;42.79
19023;BME280;35226;48.606;8.858;2023-06-14T09:31:16;96029.53;;;22.13;41.45
19023;BME280;35226;48.606;8.858;2023-06-14T09:33:47;96030.69;;;22.23;42.38
19023;BME280;35226;48.606;8.858;2023-06-14T09:36:24;96019.88;;;22.33;40.68
19023;BME280;35226;48.606;8.858;2023-06-14T09:38:55;96025.69;;;22.35;41.47
19023;BME280;35226;48.606;8.858;2023-06-14T09:41:30;96027.94;;;22.42;41.50
19023;BME280;35226;48.606;8.858;2023-06-14T09:43:58;96026.28;;;22.52;41.00
19023;BME280;35226;48.606;8.858;2023-06-14T09:46:27;96030.03;;;22.60;40.13
19023;BME280;35226;48.606;8.858;2023-06-14T09:48:53;96034.53;;;22.69;39.53
19023;BME280;35226;48.606;8.858;2023-06-14T09:51:18;96031.72;;;22.69;39.89
19023;BME280;35226;48.606;8.858;2023-06-14T09:53:48;96034.22;;;22.72;39.36
19023;BME280;35226;48.606;8.858;2023-06-14T09:56:22;96033.56;;;22.85;38.47
19023;BME280;35226;48.606;8.858;2023-06-14T09:58:50;96024.50;;;22.92;38.41
19023;BME280;35226;48.606;8.858;2023-06-14T10:01:19;96032.63;;;23.01;37.86
19023;BME280;35226;48.606;8.858;2023-06-14T10:03:46;96027.16;;;23.22;38.26
19023;BME280;35226;48.606;8.858;2023-06-14T10:06:14;96024.34;;;23.22;37.93
19023;BME280;35226;48.606;8.858;2023-06-14T10:08:40;96029.56;;;22.99;37.84
19023;BME280;35226;48.606;8.858;2023-06-14T10:11:06;96022.00;;;23.07;38.46
19023;BME280;35226;48.606;8.858;2023-06-14T10:13:34;96026.50;;;22.78;39.15
19023;BME280;35226;48.606;8.858;2023-06-14T10:16:15;96016.09;;;23.11;40.03
19023;BME280;35226;48.606;8.858;2023-06-14T10:18:51;96025.56;;;23.27;38.15
19023;BME280;35226;48.606;8.858;2023-06-14T10:21:43;96030.53;;;23.39;38.34
19023;BME280;35226;48.606;8.858;2023-06-14T10:24:13;96025.34;;;23.24;37.48
19023;BME280;35226;48.606;8.858;2023-06-14T10:26:54;96019.06;;;23.50;38.19
19023;BME280;35226;48.606;8.858;2023-06-14T10:29:22;96020.84;;;23.53;37.58
19023;BME280;35226;48.606;8.858;2023-06-14T10:31:49;96028.75;;;23.55;36.94
19023;BME280;35226;48.606;8.858;2023-06-14T10:34:25;96026.25;;;23.51;36.05
19023;BME280;35226;48.606;8.858;2023-06-14T10:37:18;96028.28;;;23.51;37.19
19023;BME280;35226;48.606;8.858;2023-06-14T10:39:44;96028.53;;;23.34;35.93
19023;BME280;35226;48.606;8.858;2023-06-14T10:42:11;96035.66;;;23.73;36.63
19023;BME280;35226;48.606;8.858;2023-06-14T10:47:07;96023.19;;;24.26;35.58
19023;BME280;35226;48.606;8.858;2023-06-14T10:49:42;96018.53;;;24.55;36.20
19023;BME280;35226;48.606;8.858;2023-06-14T10:52:13;96016.34;;;24.75;35.22
19023;BME280;35226;48.606;8.858;2023-06-14T10:57:25;96013.88;;;25.18;34.15
19023;BME280;35226;48.606;8.858;2023-06-14T10:59:51;96008.09;;;25.24;33.24
19023;BME280;35226;48.606;8.858;2023-06-14T11:02:35;96003.41;;;25.47;32.13
19023;BME280;35226;48.606;8.858;2023-06-14T11:05:14;96010.34;;;25.04;31.37
19023;BME280;35226;48.606;8.858;2023-06-14T11:12:55;96028.09;;;25.60;32.78
19023;BME280;35226;48.606;8.858;2023-06-14T11:15:28;96016.38;;;25.76;32.33
19023;BME280;35226;48.606;8.858;2023-06-14T11:17:55;96017.22;;;25.85;29.87
19023;BME280;35226;48.606;8.858;2023-06-14T11:20:24;96013.97;;;25.80;30.31
19023;BME280;35226;48.606;8.858;2023-06-14T11:22:51;96016.56;;;25.99;31.10
19023;BME280;35226;48.606;8.858;2023-06-14T11:25:17;96010.88;;;26.41;29.85
19023;BME280;35226;48.606;8.858;2023-06-14T11:27:44;96015.09;;;26.27;29.95
19023;BME280;35226;48.606;8.858;2023-06-14T11:30:10;96022.16;;;25.92;30.13
19023;BME280;35226;48.606;8.858;2023-06-14T11:32:37;96019.00;;;25.95;29.59
19023;BME280;35226;48.606;8.858;2023-06-14T11:35:03;96009.47;;;25.85;29.50
19023;BME280;35226;48.606;8.858;2023-06-14T11:37:30;96007.78;;;26.10;29.87
19023;BME280;35226;48.606;8.858;2023-06-14T11:39:59;96003.16;;;26.49;30.95
19023;BME280;35226;48.606;8.858;2023-06-14T11:42:28;96002.56;;;26.79;29.14
19023;BME280;35226;48.606;8.858;2023-06-14T11:44:54;96007.28;;;26.76;29.91
19023;BME280;35226;48.606;8.858;2023-06-14T11:47:20;96010.00;;;26.89;29.23
19023;BME280;35226;48.606;8.858;2023-06-14T11:49:46;96007.44;;;27.07;28.26
19023;BME280;35226;48.606;8.858;2023-06-14T11:52:12;96002.00;;;27.24;29.04
19023;BME280;35226;48.606;8.858;2023-06-14T11:54:38;96009.94;;;27.25;29.46
19023;BME280;35226;48.606;8.858;2023-06-14T11:57:06;96008.28;;;27.30;28.44
19023;BME280;35226;48.606;8.858;2023-06-14T11:59:38;96011.75;;;26.93;28.62
19023;BME280;35226;48.606;8.858;2023-06-14T12:02:04;96009.78;;;27.31;27.70
19023;BME280;35226;48.606;8.858;2023-06-14T12:04:29;96006.13;;;27.15;27.14
19023;BME280;35226;48.606;8.858;2023-06-14T12:06:56;96001.78;;;27.96;27.05
19023;BME280;35226;48.606;8.858;2023-06-14T12:09:23;95997.91;;;28.77;26.70
19023;BME280;35226;48.606;8.858;2023-06-14T12:11:49;95997.81;;;27.99;26.24
19023;BME280;35226;48.606;8.858;2023-06-14T12:14:15;95996.47;;;27.85;26.68
19023;BME280;35226;48.606;8.858;2023-06-14T12:16:42;96006.19;;;27.31;28.21
19023;BME280;35226;48.606;8.858;2023-06-14T12:19:13;96006.06;;;27.51;28.23
19023;BME280;35226;48.606;8.858;2023-06-14T12:21:39;95994.00;;;27.96;27.75
19023;BME280;35226;48.606;8.858;2023-06-14T12:24:06;95999.00;;;27.30;26.92
19023;BME280;35226;48.606;8.858;2023-06-14T12:26:32;96003.69;;;27.12;27.72
19023;BME280;35226;48.606;8.858;2023-06-14T12:28:58;95993.16;;;27.43;28.06
19023;BME280;35226;48.606;8.858;2023-06-14T12:31:23;95995.34;;;27.14;29.15
19023;BME280;35226;48.606;8.858;2023-06-14T12:33:49;96004.56;;;26.92;28.70
19023;BME280;35226;48.606;8.858;2023-06-14T12:36:16;96007.75;;;26.60;29.07
19023;BME280;35226;48.606;8.858;2023-06-14T12:38:42;96003.00;;;26.90;28.80
19023;BME280;35226;48.606;8.858;2023-06-14T12:41:07;96002.59;;;26.86;29.23
19023;BME280;35226;48.606;8.858;2023-06-14T12:43:33;95994.81;;;27.23;28.62
19023;BME280;35226;48.606;8.858;2023-06-14T12:46:00;95993.81;;;27.05;29.16
19023;BME280;35226;48.606;8.858;2023-06-14T12:48:26;96000.53;;;27.38;28.12
19023;BME280;35226;48.606;8.858;2023-06-14T12:50:57;95992.03;;;27.46;27.66
19023;BME280;35226;48.606;8.858;2023-06-14T12:53:22;95993.13;;;27.27;27.97
19023;BME280;35226;48.606;8.858;2023-06-14T12:55:48;95996.47;;;27.77;29.02
19023;BME280;35226;48.606;8.858;2023-06-14T12:58:14;95992.47;;;27.57;28.36
19023;BME280;35226;48.606;8.858;2023-06-14T13:00:40;96001.03;;;27.80;27.88
19023;BME280;35226;48.606;8.858;2023-06-14T13:03:05;96006.66;;;27.57;27.79
19023;BME280;35226;48.606;8.858;2023-06-14T13:05:31;96010.63;;;27.54;27.60
19023;BME280;35226;48.606;8.858;2023-06-14T13:07:58;96006.69;;;27.95;27.37
19023;BME280;35226;48.606;8.858;2023-06-14T13:10:25;96006.66;;;27.57;27.97